createdAt,value
2019-03-06T00:02:07.298Z,3.10
2019-03-06T00:04:38.228Z,3.00
2019-03-06T00:07:08.992Z,3.07
2019-03-06T00:09:39.872Z,3.20
2019-03-06T00:12:10.533Z,3.10
2019-03-06T00:14:42.769Z,3.53
2019-03-06T00:17:14.668Z,4.03
2019-03-06T00:19:45.527Z,4.00
2019-03-06T00:22:16.218Z,3.90
2019-03-06T00:24:47.548Z,3.77
2019-03-06T00:27:18.537Z,3.70
2019-03-06T00:29:49.416Z,3.80
2019-03-06T00:32:20.125Z,3.13
2019-03-06T00:34:51.737Z,3.50
2019-03-06T00:37:22.269Z,3.10
2019-03-06T00:40:00.506Z,3.70
2019-03-06T00:42:34.467Z,3.53
2019-03-06T00:45:05.435Z,3.63
2019-03-06T00:47:36.148Z,3.50
2019-03-06T00:50:07.266Z,4.20
2019-03-06T00:52:37.977Z,4.03
2019-03-06T00:55:08.842Z,4.30
2019-03-06T00:57:40.039Z,4.50
2019-03-06T01:00:12.491Z,4.53
2019-03-06T01:02:43.826Z,3.43
2019-03-06T01:05:14.720Z,3.30
2019-03-06T01:07:45.625Z,3.10
2019-03-06T01:10:16.844Z,3.23
2019-03-06T01:12:47.800Z,2.87
2019-03-06T01:15:18.848Z,3.63
2019-03-06T01:17:50.248Z,4.30
2019-03-06T01:20:21.814Z,5.30
2019-03-06T01:22:53.781Z,4.50
2019-03-06T01:25:24.564Z,4.57
2019-03-06T01:27:55.311Z,4.73
2019-03-06T01:30:27.284Z,6.17
2019-03-06T01:33:09.342Z,5.53
2019-03-06T01:35:46.961Z,6.37
2019-03-06T01:38:36.529Z,5.80
2019-03-06T01:41:48.938Z,5.63
2019-03-06T01:44:27.059Z,5.40
2019-03-06T01:47:18.064Z,5.70
2019-03-06T01:49:48.940Z,6.30
2019-03-06T01:52:20.723Z,6.60
2019-03-06T01:54:51.318Z,8.77
2019-03-06T01:57:22.197Z,8.27
2019-03-06T01:59:53.133Z,9.40
2019-03-06T02:02:24.553Z,9.00
2019-03-06T02:04:56.776Z,12.57
2019-03-06T02:07:27.883Z,13.27
2019-03-06T02:09:59.099Z,13.27
2019-03-06T02:12:29.797Z,13.47
2019-03-06T02:15:00.557Z,13.27
2019-03-06T02:17:31.347Z,14.27
2019-03-06T02:20:03.132Z,14.87
2019-03-06T02:22:33.876Z,17.93
2019-03-06T02:25:04.664Z,17.00
2019-03-06T02:27:35.343Z,15.70
2019-03-06T02:30:08.850Z,14.83
2019-03-06T02:32:39.597Z,14.93
2019-03-06T02:35:30.290Z,15.10
2019-03-06T02:38:00.938Z,14.63
2019-03-06T02:40:31.764Z,11.57
2019-03-06T02:43:02.714Z,10.27
2019-03-06T02:45:34.509Z,9.47
2019-03-06T02:48:05.287Z,8.00
2019-03-06T02:50:36.241Z,7.10
2019-03-06T02:53:07.967Z,5.80
2019-03-06T02:55:38.598Z,6.27
2019-03-06T02:58:24.214Z,5.70
2019-03-06T03:01:16.652Z,5.80
2019-03-06T03:04:18.418Z,5.77
2019-03-06T03:06:52.940Z,4.80
2019-03-06T03:09:23.751Z,5.13
2019-03-06T03:11:54.896Z,4.80
2019-03-06T03:14:25.584Z,5.50
2019-03-06T03:16:57.186Z,5.70
2019-03-06T03:19:27.919Z,6.50
2019-03-06T03:22:00.021Z,7.93
2019-03-06T03:24:30.866Z,8.30
2019-03-06T03:27:02.193Z,9.50
2019-03-06T03:29:32.953Z,11.07
2019-03-06T03:32:04.608Z,11.30
2019-03-06T03:34:37.830Z,11.40
2019-03-06T03:37:08.643Z,11.67
2019-03-06T03:39:42.161Z,14.10
2019-03-06T03:42:12.829Z,14.33
2019-03-06T03:44:43.548Z,15.97
2019-03-06T03:47:14.738Z,16.60
2019-03-06T03:49:45.575Z,17.83
2019-03-06T03:52:16.166Z,18.90
2019-03-06T03:54:47.393Z,18.30
2019-03-06T03:57:18.277Z,19.90
2019-03-06T03:59:48.870Z,20.00
2019-03-06T04:02:20.106Z,18.87
2019-03-06T04:04:50.816Z,18.53
2019-03-06T04:07:22.122Z,17.67
2019-03-06T04:09:53.992Z,16.57
2019-03-06T04:12:26.043Z,15.07
2019-03-06T04:14:56.795Z,16.10
2019-03-06T04:17:27.935Z,16.73
2019-03-06T04:20:00.546Z,16.90
2019-03-06T04:22:31.635Z,15.27
2019-03-06T04:25:02.247Z,13.93
2019-03-06T04:27:32.789Z,13.47
2019-03-06T04:30:04.201Z,11.13
2019-03-06T04:32:35.103Z,11.13
2019-03-06T04:35:05.988Z,10.20
2019-03-06T04:37:36.904Z,8.50
2019-03-06T04:40:07.682Z,7.63
2019-03-06T04:42:38.503Z,8.10
2019-03-06T04:45:10.617Z,7.60
2019-03-06T04:47:41.774Z,7.30
2019-03-06T04:50:12.564Z,7.20
2019-03-06T04:52:43.634Z,7.30
2019-03-06T04:55:14.445Z,7.70
2019-03-06T04:57:45.564Z,7.70
2019-03-06T05:00:16.656Z,8.90
2019-03-06T05:02:47.264Z,7.47
2019-03-06T05:05:17.902Z,6.43
2019-03-06T05:07:48.497Z,6.67
2019-03-06T05:10:19.409Z,7.20
2019-03-06T05:12:50.093Z,8.30
2019-03-06T05:15:21.598Z,7.33
2019-03-06T05:18:01.038Z,7.77
2019-03-06T05:20:32.019Z,7.50
2019-03-06T05:23:02.722Z,7.03
2019-03-06T05:25:35.983Z,6.30
2019-03-06T05:28:06.409Z,6.40
2019-03-06T05:30:37.291Z,6.20
2019-03-06T05:33:08.333Z,6.23
2019-03-06T05:36:13.885Z,5.93
2019-03-06T05:39:09.626Z,5.90
2019-03-06T05:41:40.633Z,6.60
2019-03-06T05:44:11.392Z,5.80
2019-03-06T05:46:42.221Z,5.50
2019-03-06T05:49:13.096Z,5.80
2019-03-06T05:51:44.618Z,5.70
2019-03-06T05:54:15.652Z,5.93
2019-03-06T05:56:49.410Z,5.70
2019-03-06T05:59:20.271Z,5.13
2019-03-06T06:01:51.346Z,6.60
2019-03-06T06:04:22.090Z,6.00
2019-03-06T06:06:52.817Z,6.40
2019-03-06T06:09:23.745Z,6.20
2019-03-06T06:11:54.599Z,5.83
2019-03-06T06:14:25.921Z,6.00
2019-03-06T06:16:57.071Z,5.80
2019-03-06T06:19:27.830Z,5.80
2019-03-06T06:22:10.551Z,6.70
2019-03-06T06:24:43.107Z,5.90
2019-03-06T06:27:14.408Z,5.60
2019-03-06T06:29:45.593Z,6.13
2019-03-06T06:32:16.571Z,5.83
2019-03-06T06:34:47.128Z,5.80
2019-03-06T06:37:17.915Z,5.70
2019-03-06T06:39:48.570Z,6.20
2019-03-06T06:42:19.835Z,5.67
2019-03-06T06:44:50.600Z,5.47
2019-03-06T06:47:21.174Z,5.20
2019-03-06T06:49:52.080Z,5.33
2019-03-06T06:52:47.485Z,5.43
2019-03-06T06:55:34.850Z,5.07
2019-03-06T06:58:31.617Z,6.57
2019-03-06T07:01:35.115Z,7.30
2019-03-06T07:04:55.669Z,7.57
2019-03-06T07:07:45.256Z,8.13
2019-03-06T07:10:33.597Z,8.33
2019-03-06T07:13:18.772Z,9.37
2019-03-06T07:16:07.014Z,9.30
2019-03-06T07:18:43.797Z,9.17
2019-03-06T07:21:33.469Z,10.10
2019-03-06T07:24:25.598Z,10.47
2019-03-06T07:27:14.578Z,10.60
2019-03-06T07:29:52.334Z,11.00
2019-03-06T07:32:37.838Z,11.30
2019-03-06T07:36:08.494Z,9.93
2019-03-06T07:38:39.676Z,14.93
2019-03-06T07:41:26.141Z,15.30
2019-03-06T07:44:07.317Z,17.07
2019-03-06T07:46:59.776Z,19.13
2019-03-06T07:49:45.716Z,16.53
2019-03-06T07:52:30.918Z,18.40
2019-03-06T07:55:13.039Z,16.73
2019-03-06T07:58:20.015Z,16.83
2019-03-06T08:00:50.882Z,17.80
2019-03-06T08:03:38.299Z,16.73
2019-03-06T08:06:10.445Z,15.13
2019-03-06T08:08:41.110Z,15.10
2019-03-06T08:11:20.612Z,14.00
2019-03-06T08:14:07.478Z,12.67
2019-03-06T08:16:53.858Z,14.57
2019-03-06T08:19:48.645Z,11.80
2019-03-06T08:22:51.234Z,13.23
2019-03-06T08:25:32.307Z,12.90
2019-03-06T08:28:03.085Z,13.70
2019-03-06T08:30:37.777Z,10.73
2019-03-06T08:33:17.713Z,9.30
2019-03-06T08:35:41.463Z,8.70
2019-03-06T08:38:12.315Z,10.10
2019-03-06T08:40:44.192Z,8.70
2019-03-06T08:43:14.841Z,9.20
2019-03-06T08:46:01.029Z,8.33
2019-03-06T08:48:52.491Z,8.20
2019-03-06T08:51:43.335Z,8.57
2019-03-06T08:54:36.094Z,8.27
2019-03-06T08:57:18.710Z,7.83
2019-03-06T09:00:10.442Z,7.97
2019-03-06T09:02:52.947Z,7.60
2019-03-06T09:05:32.086Z,7.87
2019-03-06T09:08:28.100Z,7.70
2019-03-06T09:11:16.447Z,8.10
2019-03-06T09:13:58.757Z,7.87
2019-03-06T09:16:48.537Z,9.20
2019-03-06T09:19:38.009Z,8.73
2019-03-06T09:22:18.883Z,8.53
2019-03-06T09:24:59.462Z,7.90
2019-03-06T09:27:43.201Z,8.27
2019-03-06T09:30:41.804Z,8.20
2019-03-06T09:33:30.435Z,6.73
2019-03-06T09:36:26.264Z,7.10
2019-03-06T09:39:15.026Z,7.10
2019-03-06T09:42:10.946Z,6.90
2019-03-06T09:45:00.332Z,8.33
2019-03-06T09:47:45.301Z,8.63
2019-03-06T09:50:30.360Z,7.67
2019-03-06T09:53:18.796Z,6.63
2019-03-06T09:56:07.573Z,5.60
2019-03-06T09:59:09.637Z,6.90
2019-03-06T10:02:14.276Z,5.60
2019-03-06T10:04:51.557Z,5.93
2019-03-06T10:07:33.860Z,6.47
2019-03-06T10:10:16.196Z,5.23
2019-03-06T10:13:10.345Z,4.63
2019-03-06T10:16:09.243Z,5.30
2019-03-06T10:18:52.482Z,4.93
2019-03-06T10:21:23.168Z,4.70
2019-03-06T10:23:55.303Z,4.77
2019-03-06T10:26:26.214Z,4.27
2019-03-06T10:28:57.066Z,4.23
2019-03-06T10:31:27.738Z,4.20
2019-03-06T10:33:58.560Z,4.40
2019-03-06T10:36:29.937Z,4.07
2019-03-06T10:39:00.962Z,4.10
2019-03-06T10:41:33.133Z,4.53
2019-03-06T10:44:03.919Z,4.60
2019-03-06T10:46:35.106Z,4.67
2019-03-06T10:49:07.885Z,4.53
2019-03-06T10:51:38.566Z,4.60
2019-03-06T10:54:09.954Z,4.30
2019-03-06T10:56:41.455Z,4.77
2019-03-06T10:59:12.675Z,3.90
2019-03-06T11:01:45.200Z,4.77
2019-03-06T11:04:33.762Z,4.67
2019-03-06T11:07:05.456Z,4.43
2019-03-06T11:09:38.632Z,5.03
2019-03-06T11:12:11.604Z,4.47
2019-03-06T11:14:45.039Z,4.10
2019-03-06T11:17:15.910Z,3.83
2019-03-06T11:19:51.287Z,4.40
2019-03-06T11:22:22.516Z,4.40
2019-03-06T11:24:53.686Z,4.77
2019-03-06T11:27:25.502Z,4.63
2019-03-06T11:29:56.364Z,5.63
2019-03-06T11:32:27.437Z,4.93
2019-03-06T11:34:58.209Z,5.37
2019-03-06T11:37:31.643Z,5.27
2019-03-06T11:40:02.372Z,5.63
2019-03-06T11:42:33.206Z,6.20
2019-03-06T11:45:04.285Z,5.60
2019-03-06T11:47:35.063Z,5.63
2019-03-06T11:50:06.210Z,6.60
2019-03-06T11:52:37.028Z,6.77
2019-03-06T11:55:08.561Z,6.50
2019-03-06T11:57:42.355Z,6.10
2019-03-06T12:00:38.448Z,6.30
2019-03-06T12:03:09.414Z,7.20
2019-03-06T12:05:41.592Z,7.00
2019-03-06T12:08:14.376Z,7.00
2019-03-06T12:10:45.823Z,6.93
2019-03-06T12:13:17.948Z,6.43
2019-03-06T12:15:50.436Z,5.20
2019-03-06T12:18:22.453Z,6.27
2019-03-06T12:20:53.569Z,5.63
2019-03-06T12:23:25.318Z,6.50
2019-03-06T12:25:56.347Z,6.47
2019-03-06T12:28:27.323Z,6.93
2019-03-06T12:30:58.387Z,6.30
2019-03-06T12:33:29.948Z,6.10
2019-03-06T12:36:00.607Z,6.43
2019-03-06T12:38:31.379Z,5.73
2019-03-06T12:41:01.972Z,5.40
2019-03-06T12:43:33.259Z,5.87
2019-03-06T12:46:23.463Z,6.60
2019-03-06T12:49:01.125Z,6.27
2019-03-06T12:51:32.708Z,5.77
2019-03-06T12:54:03.548Z,6.03
2019-03-06T12:56:34.372Z,5.80
2019-03-06T12:59:05.506Z,6.13
2019-03-06T13:01:36.258Z,5.80
2019-03-06T13:04:07.189Z,5.70
2019-03-06T13:06:38.260Z,5.90
2019-03-06T13:09:16.529Z,5.50
2019-03-06T13:11:47.422Z,5.80
2019-03-06T13:14:17.952Z,5.53
2019-03-06T13:16:48.887Z,6.57
2019-03-06T13:19:19.912Z,6.90
2019-03-06T13:21:53.039Z,5.50
2019-03-06T13:24:24.303Z,6.20
2019-03-06T13:26:55.641Z,5.93
2019-03-06T13:29:27.373Z,8.27
2019-03-06T13:31:59.154Z,8.73
2019-03-06T13:34:52.420Z,9.63
2019-03-06T13:37:25.069Z,8.00
2019-03-06T13:39:55.911Z,6.50
2019-03-06T13:42:27.266Z,5.20
2019-03-06T13:44:58.415Z,2.83
2019-03-06T13:47:29.380Z,3.70
2019-03-06T13:50:00.311Z,3.07
2019-03-06T13:52:31.281Z,3.00
2019-03-06T13:55:02.131Z,2.90
2019-03-06T13:57:32.972Z,3.17
2019-03-06T14:00:03.685Z,2.43
2019-03-06T14:02:34.764Z,2.33
2019-03-06T14:05:05.680Z,2.40
2019-03-06T14:07:37.932Z,2.40
2019-03-06T14:10:11.215Z,2.30
2019-03-06T14:12:42.188Z,2.30
2019-03-06T14:15:13.546Z,2.80
2019-03-06T14:17:44.496Z,3.37
2019-03-06T14:20:16.322Z,3.20
2019-03-06T14:22:47.287Z,2.47
2019-03-06T14:25:18.723Z,3.23
2019-03-06T14:27:50.024Z,3.60
2019-03-06T14:30:21.064Z,2.90
2019-03-06T14:32:52.402Z,2.90
2019-03-06T14:35:24.441Z,3.30
2019-03-06T14:37:55.308Z,2.90
2019-03-06T14:40:30.261Z,2.93
2019-03-06T14:43:01.575Z,3.77
2019-03-06T14:45:32.678Z,4.60
2019-03-06T14:48:03.420Z,4.60
2019-03-06T14:50:34.244Z,4.10
2019-03-06T14:53:05.665Z,3.40
2019-03-06T14:55:37.962Z,3.43
2019-03-06T14:58:08.966Z,3.00
2019-03-06T15:00:39.879Z,2.60
2019-03-06T15:03:10.740Z,3.30
2019-03-06T15:05:47.181Z,3.17
2019-03-06T15:08:14.555Z,3.30
2019-03-06T15:10:45.383Z,3.40
2019-03-06T15:13:16.391Z,3.70
2019-03-06T15:15:47.272Z,4.10
2019-03-06T15:18:18.068Z,4.33
2019-03-06T15:20:48.531Z,3.80
2019-03-06T15:23:19.334Z,3.87
2019-03-06T15:25:50.134Z,4.30
2019-03-06T15:28:20.830Z,3.90
2019-03-06T15:30:53.283Z,3.60
2019-03-06T15:33:25.660Z,4.20
2019-03-06T15:35:56.527Z,4.00
2019-03-06T15:38:27.261Z,7.03
2019-03-06T15:40:58.134Z,7.97
2019-03-06T15:43:29.726Z,7.33
2019-03-06T15:46:00.354Z,6.77
2019-03-06T15:48:31.163Z,7.57
2019-03-06T15:51:02.085Z,5.77
2019-03-06T15:53:32.784Z,5.27
2019-03-06T15:56:04.089Z,7.40
2019-03-06T15:58:35.723Z,7.60
2019-03-06T16:01:07.028Z,8.70
2019-03-06T16:03:37.738Z,6.87
2019-03-06T16:06:09.926Z,4.70
2019-03-06T16:08:41.090Z,4.40
2019-03-06T16:11:12.672Z,4.10
2019-03-06T16:13:43.491Z,4.20
2019-03-06T16:16:17.009Z,3.50
2019-03-06T16:18:48.081Z,3.60
2019-03-06T16:21:18.683Z,3.03
2019-03-06T16:23:49.751Z,3.50
2019-03-06T16:26:21.534Z,3.50
2019-03-06T16:28:52.204Z,3.17
2019-03-06T16:31:23.769Z,4.10
2019-03-06T16:33:55.587Z,3.50
2019-03-06T16:36:26.414Z,2.70
2019-03-06T16:38:57.233Z,4.13
2019-03-06T16:41:28.114Z,4.00
2019-03-06T16:43:59.999Z,3.47
2019-03-06T16:46:31.425Z,3.30
2019-03-06T16:49:02.287Z,4.10
2019-03-06T16:51:35.201Z,4.47
2019-03-06T16:54:05.936Z,4.80
2019-03-06T16:56:36.847Z,4.60
2019-03-06T16:59:08.952Z,4.23
2019-03-06T17:01:41.218Z,4.50
2019-03-06T17:04:12.997Z,4.70
2019-03-06T17:06:43.908Z,4.47
2019-03-06T17:09:15.660Z,3.37
2019-03-06T17:11:47.076Z,3.53
2019-03-06T17:14:18.368Z,4.07
2019-03-06T17:16:49.124Z,3.43
2019-03-06T17:19:19.785Z,4.17
2019-03-06T17:21:51.365Z,4.60
2019-03-06T17:24:23.353Z,4.90
2019-03-06T17:26:53.812Z,4.70
2019-03-06T17:29:26.585Z,4.30
2019-03-06T17:31:57.432Z,3.97
2019-03-06T17:34:28.219Z,4.07
2019-03-06T17:36:58.795Z,4.40
2019-03-06T17:39:30.399Z,4.57
2019-03-06T17:42:01.014Z,5.07
2019-03-06T17:44:31.460Z,4.97
2019-03-06T17:47:02.309Z,6.67
2019-03-06T17:49:34.956Z,6.80
2019-03-06T17:52:07.413Z,7.50
2019-03-06T17:54:39.286Z,10.27
2019-03-06T17:57:10.138Z,7.63
2019-03-06T17:59:43.250Z,6.80
2019-03-06T18:02:20.479Z,6.00
2019-03-06T18:04:52.307Z,5.43
2019-03-06T18:07:22.895Z,4.10
2019-03-06T18:09:53.532Z,4.80
2019-03-06T18:12:24.565Z,7.27
2019-03-06T18:14:55.108Z,6.17
2019-03-06T18:17:25.848Z,6.83
2019-03-06T18:19:58.064Z,6.20
2019-03-06T18:22:29.938Z,6.13
2019-03-06T18:25:00.601Z,7.83
2019-03-06T18:27:31.252Z,6.77
2019-03-06T18:30:01.949Z,5.93
2019-03-06T18:32:32.661Z,6.00
2019-03-06T18:35:05.163Z,6.47
2019-03-06T18:37:36.316Z,6.10
2019-03-06T18:40:07.783Z,6.30
2019-03-06T18:42:38.533Z,6.67
2019-03-06T18:45:11.809Z,6.73
2019-03-06T18:47:45.316Z,5.97
2019-03-06T18:50:18.205Z,7.37
2019-03-06T18:52:48.663Z,6.73
2019-03-06T18:55:20.913Z,8.93
2019-03-06T18:57:54.612Z,8.57
2019-03-06T19:00:25.218Z,8.30
2019-03-06T19:02:55.799Z,9.70
2019-03-06T19:05:26.993Z,9.40
2019-03-06T19:07:57.915Z,8.83
2019-03-06T19:10:29.187Z,9.27
2019-03-06T19:13:00.077Z,9.27
2019-03-06T19:15:31.156Z,10.00
2019-03-06T19:18:01.683Z,10.27
2019-03-06T19:20:32.513Z,10.50
2019-03-06T19:23:03.211Z,12.70
2019-03-06T19:25:34.779Z,15.60
2019-03-06T19:28:07.019Z,11.20
2019-03-06T19:30:38.265Z,11.43
2019-03-06T19:33:11.019Z,9.87
2019-03-06T19:35:42.133Z,10.47
2019-03-06T19:38:12.809Z,11.30
2019-03-06T19:40:43.629Z,11.07
2019-03-06T19:43:16.839Z,11.33
2019-03-06T19:45:47.901Z,11.80
2019-03-06T19:48:18.395Z,9.57
2019-03-06T19:50:52.211Z,10.70
2019-03-06T19:53:23.206Z,10.10
2019-03-06T19:55:53.850Z,9.13
2019-03-06T19:58:24.850Z,10.23
2019-03-06T20:00:55.556Z,10.00
2019-03-06T20:03:26.690Z,8.73
2019-03-06T20:05:58.066Z,8.97
2019-03-06T20:08:29.962Z,9.33
2019-03-06T20:11:00.856Z,8.63
2019-03-06T20:13:32.655Z,9.50
2019-03-06T20:16:03.793Z,9.10
2019-03-06T20:18:34.100Z,9.73
2019-03-06T20:21:05.491Z,8.63
2019-03-06T20:23:36.689Z,8.73
2019-03-06T20:26:13.697Z,9.80
2019-03-06T20:28:40.975Z,9.50
2019-03-06T20:31:11.788Z,9.77
2019-03-06T20:33:43.343Z,10.00
2019-03-06T20:36:13.882Z,10.97
2019-03-06T20:38:44.690Z,8.43
2019-03-06T20:41:16.920Z,7.17
2019-03-06T20:43:47.904Z,9.43
2019-03-06T20:46:18.617Z,8.90
2019-03-06T20:48:49.541Z,8.73
2019-03-06T20:51:20.886Z,8.73
2019-03-06T20:53:51.577Z,8.57
2019-03-06T20:56:22.585Z,8.77
2019-03-06T20:58:54.965Z,8.27
2019-03-06T21:01:26.576Z,8.07
2019-03-06T21:03:57.283Z,9.50
2019-03-06T21:06:33.622Z,8.33
2019-03-06T21:09:00.662Z,9.43
2019-03-06T21:11:31.174Z,9.10
2019-03-06T21:14:03.256Z,8.77
2019-03-06T21:16:34.756Z,8.67
2019-03-06T21:19:05.345Z,7.40
2019-03-06T21:21:35.962Z,8.33
2019-03-06T21:24:06.657Z,8.30
2019-03-06T21:26:37.527Z,8.00
2019-03-06T21:29:08.729Z,7.90
2019-03-06T21:31:39.393Z,7.73
2019-03-06T21:34:09.857Z,8.20
2019-03-06T21:36:40.793Z,9.03
2019-03-06T21:39:24.166Z,8.63
2019-03-06T21:41:54.930Z,9.10
2019-03-06T21:44:25.621Z,7.70
2019-03-06T21:46:56.408Z,8.43
2019-03-06T21:49:28.130Z,8.63
2019-03-06T21:51:58.736Z,7.50
2019-03-06T21:54:29.026Z,7.90
2019-03-06T21:57:01.188Z,7.20
2019-03-06T21:59:32.245Z,7.50
2019-03-06T22:02:03.074Z,7.50
2019-03-06T22:04:34.043Z,7.50
2019-03-06T22:07:05.391Z,6.53
2019-03-06T22:09:36.284Z,6.77
2019-03-06T22:12:06.973Z,7.50
2019-03-06T22:14:37.613Z,7.80
2019-03-06T22:17:09.354Z,7.60
2019-03-06T22:19:40.194Z,8.03
2019-03-06T22:22:12.102Z,6.90
2019-03-06T22:24:42.670Z,7.10
2019-03-06T22:27:13.596Z,7.50
2019-03-06T22:29:45.781Z,7.70
2019-03-06T22:32:16.272Z,8.17
2019-03-06T22:34:47.060Z,8.97
2019-03-06T22:37:17.797Z,8.30
2019-03-06T22:39:48.304Z,7.30
2019-03-06T22:42:18.906Z,7.10
2019-03-06T22:44:49.673Z,8.00
2019-03-06T22:47:21.407Z,8.87
2019-03-06T22:49:52.111Z,7.30
2019-03-06T22:52:22.645Z,7.60
2019-03-06T22:54:53.009Z,6.80
2019-03-06T22:57:24.414Z,8.03
2019-03-06T22:59:54.677Z,9.00
2019-03-06T23:02:26.246Z,9.70
2019-03-06T23:04:57.962Z,17.90
2019-03-06T23:07:28.567Z,14.10
2019-03-06T23:09:59.586Z,12.00
2019-03-06T23:12:31.695Z,11.60
2019-03-06T23:15:02.142Z,8.63
2019-03-06T23:17:32.368Z,8.90
2019-03-06T23:20:03.316Z,8.43
2019-03-06T23:22:33.996Z,9.10
2019-03-06T23:25:04.370Z,8.40
2019-03-06T23:27:35.010Z,9.43
2019-03-06T23:30:09.809Z,9.03
2019-03-06T23:32:40.438Z,9.57
2019-03-06T23:35:11.744Z,7.93
2019-03-06T23:37:42.243Z,7.90
2019-03-06T23:40:13.102Z,8.90
2019-03-06T23:42:43.887Z,8.13
2019-03-06T23:45:14.735Z,8.83
2019-03-06T23:47:45.451Z,9.60
2019-03-06T23:50:16.899Z,9.80
2019-03-06T23:53:15.557Z,11.73
2019-03-06T23:55:46.761Z,11.23
2019-03-06T23:58:17.688Z,9.80
